Terminal Aerodrome Forecast
Issued by NWS

Home | Current Version | Previous Version | Text Only | Print | Product List | Glossary On
Versions: 1 2 3 4 5 6 7 8 9 10 11 12 13 14 15 16 17 18 19 20 21 22 23 24 25 26 27 28 29 30 31 32 33 34 35 36
000
FTPQ31 PGUM 192052 RRC
TAFGRO
TAF

TAF
PGWT 192052Z 1921/2018 06011KT P6SM VCSH FEW020 SCT040 BKN100
      WS020/06030KT
     FM192300 06015G25KT P6SM VCSH FEW020 SCT040 BKN100=

USA.gov is the U.S. government's official web portal to all federal, state and local government web resources and services.